Time;durP1;ratioP1;P1;durP2;ratioP2;P2;SDS_P1;SDS_P2;PMS_P1;PMS_P2;Temp;Humidity;BMP_temperature;BMP_pressure;BME280_temperature;BME280_humidity;BME280_pressure;Samples;Min_cycle;Max_cycle;Signal;HPM_P1;HPM_P2
2023/06/15 00:00:48;;;;;;;;;;;;;;;;;;5040765;28;19932;-93
2023/06/15 00:03:16;;;;;;;;;;;;;;;;;;5050407;28;19925;-93
2023/06/15 00:05:45;;;;;;;;;;;;;;;;;;5056316;28;19925;-93
2023/06/15 00:08:12;;;;;;;;;;;;;;;;;;5034232;28;19936;-93
2023/06/15 00:10:40;;;;;;;;;;;;;;;;;;5052344;28;19933;-93
2023/06/15 00:13:08;;;;;;;;;;;;;;;;;;5041950;28;19936;-93
2023/06/15 00:15:36;;;;;;;;;;;;;;;;;;5037277;28;20409;-94
2023/06/15 00:18:05;;;;;;;;;;;;;;;;;;5059899;28;19925;-93
2023/06/15 00:20:32;;;;;;;;;;;;;;;;;;5053488;28;19940;-93
2023/06/15 00:22:59;;;;;;;;;;;;;;;;;;5038957;28;20305;-94
2023/06/15 00:25:26;;;;;;;;;;;;;;;;;;5056050;28;19935;-93
2023/06/15 00:27:55;;;;;;;;;;;;;;;;;;5053584;28;19929;-92
2023/06/15 00:30:22;;;;;;;;;;;;;;;;;;5049725;28;19936;-93
2023/06/15 00:32:49;;;;;;;;;;;;;;;;;;5054192;28;19948;-95
2023/06/15 00:35:16;;;;;;;;;;;;;;;;;;5050070;28;19925;-93
2023/06/15 00:37:44;;;;;;;;;;;;;;;;;;5066924;28;19935;-93
2023/06/15 00:40:11;;;;;;;;;;;;;;;;;;5072594;28;19925;-93
2023/06/15 00:42:38;;;;;;;;;;;;;;;;;;5047088;28;19931;-92
2023/06/15 00:45:08;;;;;;;;;;;;;;;;;;5044919;28;19932;-93
2023/06/15 00:47:38;;;;;;;;;;;;;;;;;;5047348;28;19925;-93
2023/06/15 00:50:09;;;;;;;;;;;;;;;;;;5062662;28;19932;-94
2023/06/15 00:52:36;;;;;;;;;;;;;;;;;;5061658;28;19925;-93
2023/06/15 00:55:03;;;;;;;;;;;;;;;;;;5044356;28;20345;-93
2023/06/15 00:57:32;;;;;;;;;;;;;;;;;;5060706;28;19925;-93
2023/06/15 01:00:00;;;;;;;;;;;;;;;;;;5056935;28;19925;-93
2023/06/15 01:02:34;;;;;;;;;;;;;;;;;;5060528;28;19996;-92
2023/06/15 01:05:01;;;;;;;;;;;;;;;;;;5053197;28;19926;-93
2023/06/15 01:07:29;;;;;;;;;;;;;;;;;;5043394;28;20322;-93
2023/06/15 01:09:59;;;;;;;;;;;;;;;;;;5019011;28;19932;-94
2023/06/15 01:12:34;;;;;;;;;;;;;;;;;;5044598;28;20293;-93
2023/06/15 01:15:04;;;;;;;;;;;;;;;;;;5049463;28;19936;-93
2023/06/15 01:17:32;;;;;;;;;;;;;;;;;;5059591;28;19925;-92
2023/06/15 01:20:04;;;;;;;;;;;;;;;;;;5046353;28;20283;-93
2023/06/15 01:22:34;;;;;;;;;;;;;;;;;;5063714;28;19924;-93
2023/06/15 01:25:12;;;;;;;;;;;;;;;;;;5061433;28;19925;-94
2023/06/15 01:27:43;;;;;;;;;;;;;;;;;;5041294;28;19929;-93
2023/06/15 01:30:13;;;;;;;;;;;;;;;;;;5021767;28;19939;-93
2023/06/15 01:32:41;;;;;;;;;;;;;;;;;;5061531;28;20291;-93
2023/06/15 01:35:08;;;;;;;;;;;;;;;;;;5052302;28;19929;-93
2023/06/15 01:37:36;;;;;;;;;;;;;;;;;;5056120;28;20328;-92
2023/06/15 01:40:07;;;;;;;;;;;;;;;;;;5046561;28;19936;-93
2023/06/15 01:42:35;;;;;;;;;;;;;;;;;;5065737;28;19929;-94
2023/06/15 01:45:03;;;;;;;;;;;;;;;;;;5049362;28;19936;-92
2023/06/15 01:47:31;;;;;;;;;;;;;;;;;;5063875;28;19931;-93
2023/06/15 01:49:59;;;;;;;;;;;;;;;;;;5064094;28;19925;-93
2023/06/15 01:52:28;;;;;;;;;;;;;;;;;;5053871;28;19925;-94
2023/06/15 01:54:55;;;;;;;;;;;;;;;;;;5010916;28;19925;-93
2023/06/15 01:57:23;;;;;;;;;;;;;;;;;;5041772;28;19926;-93
2023/06/15 01:59:57;;;;;;;;;;;;;;;;;;5066087;28;19933;-93
2023/06/15 02:02:25;;;;;;;;;;;;;;;;;;5037556;28;19931;-93
2023/06/15 02:04:53;;;;;;;;;;;;;;;;;;5068810;28;20289;-93
2023/06/15 02:07:20;;;;;;;;;;;;;;;;;;5051548;28;19924;-93
2023/06/15 02:09:49;;;;;;;;;;;;;;;;;;5059073;28;20309;-93
2023/06/15 02:12:16;;;;;;;;;;;;;;;;;;5049011;28;19940;-93
2023/06/15 02:14:44;;;;;;;;;;;;;;;;;;5056829;28;19909;-91
2023/06/15 02:17:12;;;;;;;;;;;;;;;;;;5063305;28;19924;-93
2023/06/15 02:19:41;;;;;;;;;;;;;;;;;;5046746;28;19932;-93
2023/06/15 02:22:08;;;;;;;;;;;;;;;;;;5039069;28;19925;-94
2023/06/15 02:24:35;;;;;;;;;;;;;;;;;;5051240;28;20433;-93
2023/06/15 02:27:05;;;;;;;;;;;;;;;;;;5050322;28;19933;-93
2023/06/15 02:29:32;;;;;;;;;;;;;;;;;;5025611;28;19909;-92
2023/06/15 02:32:02;;;;;;;;;;;;;;;;;;5031879;28;19925;-93
2023/06/15 02:34:30;;;;;;;;;;;;;;;;;;5036418;28;19932;-92
2023/06/15 02:36:58;;;;;;;;;;;;;;;;;;5043710;28;20302;-93
2023/06/15 02:39:26;;;;;;;;;;;;;;;;;;5034891;28;19940;-94
2023/06/15 02:41:53;;;;;;;;;;;;;;;;;;5046066;28;19940;-94
2023/06/15 02:44:21;;;;;;;;;;;;;;;;;;5035341;28;19936;-92
2023/06/15 02:46:48;;;;;;;;;;;;;;;;;;5040502;28;19925;-93
2023/06/15 02:49:18;;;;;;;;;;;;;;;;;;5023480;28;19929;-93
2023/06/15 02:51:48;;;;;;;;;;;;;;;;;;5057109;28;19924;-94
2023/06/15 02:54:17;;;;;;;;;;;;;;;;;;5026354;28;19936;-93
2023/06/15 02:56:46;;;;;;;;;;;;;;;;;;5055769;28;19933;-92
2023/06/15 02:59:16;;;;;;;;;;;;;;;;;;5035235;28;19929;-92
2023/06/15 03:01:52;;;;;;;;;;;;;;;;;;5045521;28;19948;-93
2023/06/15 03:04:22;;;;;;;;;;;;;;;;;;5054816;28;19933;-92
2023/06/15 03:06:50;;;;;;;;;;;;;;;;;;5058645;28;20334;-93
2023/06/15 03:09:24;;;;;;;;;;;;;;;;;;5050411;28;19913;-91
2023/06/15 03:11:51;;;;;;;;;;;;;;;;;;5058611;28;19927;-90
2023/06/15 03:14:20;;;;;;;;;;;;;;;;;;5059675;28;19925;-91
2023/06/15 03:16:51;;;;;;;;;;;;;;;;;;5033832;28;19924;-92
2023/06/15 03:19:18;;;;;;;;;;;;;;;;;;5043100;28;19924;-91
2023/06/15 03:21:47;;;;;;;;;;;;;;;;;;5053285;28;19936;-93
2023/06/15 03:24:16;;;;;;;;;;;;;;;;;;5038240;28;20313;-95
2023/06/15 03:26:45;;;;;;;;;;;;;;;;;;5058903;28;19924;-94
2023/06/15 03:29:13;;;;;;;;;;;;;;;;;;5044979;28;19929;-93
2023/06/15 03:31:41;;;;;;;;;;;;;;;;;;5040595;28;19925;-93
2023/06/15 03:34:09;;;;;;;;;;;;;;;;;;5069002;28;19932;-93
2023/06/15 03:36:36;;;;;;;;;;;;;;;;;;5055370;28;19928;-93
2023/06/15 03:39:04;;;;;;;;;;;;;;;;;;5054433;28;19913;-93
2023/06/15 03:41:31;;;;;;;;;;;;;;;;;;5042703;28;19935;-93
2023/06/15 03:44:00;;;;;;;;;;;;;;;;;;5053077;28;19923;-92
2023/06/15 03:46:28;;;;;;;;;;;;;;;;;;5049842;28;20261;-93
2023/06/15 03:48:55;;;;;;;;;;;;;;;;;;5053685;28;19999;-93
2023/06/15 03:51:22;;;;;;;;;;;;;;;;;;5037484;28;19925;-93
2023/06/15 03:53:49;;;;;;;;;;;;;;;;;;5056999;28;19925;-93
2023/06/15 03:56:17;;;;;;;;;;;;;;;;;;5072473;28;19927;-93
2023/06/15 03:58:44;;;;;;;;;;;;;;;;;;5062428;28;20404;-93
2023/06/15 04:01:14;;;;;;;;;;;;;;;;;;5079495;28;19916;-93
2023/06/15 04:03:41;;;;;;;;;;;;;;;;;;5072533;28;19918;-91
2023/06/15 04:06:08;;;;;;;;;;;;;;;;;;5068984;28;19929;-94
2023/06/15 04:08:36;;;;;;;;;;;;;;;;;;5053303;28;19935;-92
2023/06/15 04:11:06;;;;;;;;;;;;;;;;;;5049220;28;19929;-92
2023/06/15 04:13:33;;;;;;;;;;;;;;;;;;5049757;28;19936;-93
2023/06/15 04:16:02;;;;;;;;;;;;;;;;;;5059559;28;19932;-93
2023/06/15 04:18:31;;;;;;;;;;;;;;;;;;5065440;28;19916;-94
2023/06/15 04:20:58;;;;;;;;;;;;;;;;;;5069881;28;19909;-91
2023/06/15 04:23:25;;;;;;;;;;;;;;;;;;5058591;28;19933;-91
2023/06/15 04:25:53;;;;;;;;;;;;;;;;;;5023051;28;20298;-92
2023/06/15 04:28:20;;;;;;;;;;;;;;;;;;5031434;28;19909;-93
2023/06/15 04:30:54;;;;;;;;;;;;;;;;;;5051209;28;19913;-92
2023/06/15 04:33:26;;;;;;;;;;;;;;;;;;5056556;28;21128;-92
2023/06/15 04:35:56;;;;;;;;;;;;;;;;;;5039150;28;19925;-93
2023/06/15 04:38:23;;;;;;;;;;;;;;;;;;5065354;28;19996;-93
2023/06/15 04:40:54;;;;;;;;;;;;;;;;;;5038357;28;19936;-94
2023/06/15 04:43:22;;;;;;;;;;;;;;;;;;5064193;28;19925;-93
2023/06/15 04:45:49;;;;;;;;;;;;;;;;;;5042483;28;20408;-93
2023/06/15 04:48:27;;;;;;;;;;;;;;;;;;5042258;28;19915;-93
2023/06/15 04:50:56;;;;;;;;;;;;;;;;;;5063153;28;19935;-94
2023/06/15 04:53:23;;;;;;;;;;;;;;;;;;5047379;28;19947;-94
2023/06/15 04:55:50;;;;;;;;;;;;;;;;;;5050824;28;19924;-94
2023/06/15 04:58:18;;;;;;;;;;;;;;;;;;5054194;28;19925;-94
2023/06/15 05:00:48;;;;;;;;;;;;;;;;;;5056689;28;19932;-92
2023/06/15 05:03:15;;;;;;;;;;;;;;;;;;5055239;28;19929;-93
2023/06/15 05:05:43;;;;;;;;;;;;;;;;;;5045573;28;19936;-92
2023/06/15 05:08:12;;;;;;;;;;;;;;;;;;5074091;28;19921;-93
2023/06/15 05:10:40;;;;;;;;;;;;;;;;;;5057137;28;19920;-92
2023/06/15 05:13:08;;;;;;;;;;;;;;;;;;5060012;28;19909;-92
2023/06/15 05:15:36;;;;;;;;;;;;;;;;;;5073517;28;19987;-93
2023/06/15 05:18:04;;;;;;;;;;;;;;;;;;5053822;28;19939;-92
2023/06/15 05:20:33;;;;;;;;;;;;;;;;;;5059798;28;19942;-92
2023/06/15 05:23:01;;;;;;;;;;;;;;;;;;5053556;28;19967;-90
2023/06/15 05:25:30;;;;;;;;;;;;;;;;;;5023523;28;19932;-93
2023/06/15 05:27:57;;;;;;;;;;;;;;;;;;5020403;28;19949;-91
2023/06/15 05:30:26;;;;;;;;;;;;;;;;;;5054814;28;19924;-89
2023/06/15 05:32:53;;;;;;;;;;;;;;;;;;5061608;28;19929;-92
2023/06/15 05:35:22;;;;;;;;;;;;;;;;;;5024119;28;19929;-92
2023/06/15 05:37:50;;;;;;;;;;;;;;;;;;5056459;28;19924;-93
2023/06/15 05:40:17;;;;;;;;;;;;;;;;;;5052455;28;19939;-92
2023/06/15 05:42:46;;;;;;;;;;;;;;;;;;5057786;28;19925;-92
2023/06/15 05:45:16;;;;;;;;;;;;;;;;;;5058865;28;19935;-92
2023/06/15 05:47:46;;;;;;;;;;;;;;;;;;5031567;28;19933;-93
2023/06/15 05:50:16;;;;;;;;;;;;;;;;;;5073239;28;19931;-90
2023/06/15 05:52:47;;;;;;;;;;;;;;;;;;5049045;28;19933;-93
2023/06/15 05:55:15;;;;;;;;;;;;;;;;;;5049490;28;19932;-91
2023/06/15 05:57:49;;;;;;;;;;;;;;;;;;5062766;28;19925;-92
2023/06/15 06:00:22;;;;;;;;;;;;;;;;;;5060122;28;19923;-91
2023/06/15 06:02:55;;;;;;;;;;;;;;;;;;5071648;28;19935;-90
2023/06/15 06:05:31;;;;;;;;;;;;;;;;;;5072241;28;19933;-93
2023/06/15 06:07:58;;;;;;;;;;;;;;;;;;5054505;28;19935;-93
2023/06/15 06:10:28;;;;;;;;;;;;;;;;;;5064120;28;20007;-92
2023/06/15 06:13:08;;;;;;;;;;;;;;;;;;5053771;28;19929;-91
2023/06/15 06:15:36;;;;;;;;;;;;;;;;;;5066281;28;19936;-92
2023/06/15 06:18:04;;;;;;;;;;;;;;;;;;5037545;28;19924;-91
2023/06/15 06:20:32;;;;;;;;;;;;;;;;;;5072380;28;19921;-91
2023/06/15 06:23:03;;;;;;;;;;;;;;;;;;5036850;28;19928;-91
2023/06/15 06:25:30;;;;;;;;;;;;;;;;;;5048061;28;19913;-91
2023/06/15 06:27:58;;;;;;;;;;;;;;;;;;5057817;28;19923;-91
2023/06/15 06:30:27;;;;;;;;;;;;;;;;;;5051581;28;19931;-92
2023/06/15 06:32:56;;;;;;;;;;;;;;;;;;5077600;28;19920;-91
2023/06/15 06:35:25;;;;;;;;;;;;;;;;;;5073785;28;19931;-93
2023/06/15 06:37:53;;;;;;;;;;;;;;;;;;5075238;28;19913;-91
2023/06/15 06:40:20;;;;;;;;;;;;;;;;;;5076168;28;19909;-92
2023/06/15 06:42:50;;;;;;;;;;;;;;;;;;5076472;28;19923;-91
2023/06/15 06:45:17;;;;;;;;;;;;;;;;;;5071115;28;19920;-91
2023/06/15 06:47:46;;;;;;;;;;;;;;;;;;5073142;28;19929;-91
2023/06/15 06:50:13;;;;;;;;;;;;;;;;;;5071349;28;19923;-91
2023/06/15 06:52:42;;;;;;;;;;;;;;;;;;5074968;28;19913;-91
2023/06/15 06:55:09;;;;;;;;;;;;;;;;;;5077017;28;19912;-92
2023/06/15 06:57:36;;;;;;;;;;;;;;;;;;5057776;28;19923;-92
2023/06/15 07:00:09;;;;;;;;;;;;;;;;;;5074498;28;19929;-91
2023/06/15 07:02:37;;;;;;;;;;;;;;;;;;5066361;28;19931;-92
2023/06/15 07:05:05;;;;;;;;;;;;;;;;;;5070920;28;19955;-93
2023/06/15 07:07:33;;;;;;;;;;;;;;;;;;5066033;28;19924;-93
2023/06/15 07:10:00;;;;;;;;;;;;;;;;;;5072423;28;19933;-93
2023/06/15 07:12:27;;;;;;;;;;;;;;;;;;5058379;28;19925;-92
2023/06/15 07:14:55;;;;;;;;;;;;;;;;;;5065432;28;19929;-91
2023/06/15 07:17:25;;;;;;;;;;;;;;;;;;5073980;28;19930;-92
2023/06/15 07:19:52;;;;;;;;;;;;;;;;;;5060446;28;19913;-91
2023/06/15 07:22:20;;;;;;;;;;;;;;;;;;5060905;28;19928;-93
2023/06/15 07:24:47;;;;;;;;;;;;;;;;;;5072505;28;19919;-92
2023/06/15 07:27:17;;;;;;;;;;;;;;;;;;5057966;28;19908;-91
2023/06/15 07:29:44;;;;;;;;;;;;;;;;;;5058513;28;19927;-91
2023/06/15 07:32:11;;;;;;;;;;;;;;;;;;5064243;28;19912;-91
2023/06/15 07:34:38;;;;;;;;;;;;;;;;;;5056011;28;19913;-92
2023/06/15 07:37:08;;;;;;;;;;;;;;;;;;5074666;28;19913;-91
2023/06/15 07:39:36;;;;;;;;;;;;;;;;;;5051759;28;19919;-92
2023/06/15 07:42:04;;;;;;;;;;;;;;;;;;5046001;28;19909;-91
2023/06/15 07:44:31;;;;;;;;;;;;;;;;;;5063932;28;19914;-91
2023/06/15 07:47:00;;;;;;;;;;;;;;;;;;5077380;28;19921;-91
2023/06/15 07:49:27;;;;;;;;;;;;;;;;;;5075703;28;19939;-93
2023/06/15 07:51:54;;;;;;;;;;;;;;;;;;5075277;28;19915;-92
2023/06/15 07:54:21;;;;;;;;;;;;;;;;;;5073905;28;19925;-91
2023/06/15 07:56:50;;;;;;;;;;;;;;;;;;5035244;28;19923;-91
2023/06/15 07:59:17;;;;;;;;;;;;;;;;;;5072718;28;19913;-91
2023/06/15 08:01:44;;;;;;;;;;;;;;;;;;5071417;28;19913;-91
2023/06/15 08:04:11;;;;;;;;;;;;;;;;;;5068338;28;19921;-91
2023/06/15 08:06:38;;;;;;;;;;;;;;;;;;5062013;28;19912;-92
2023/06/15 08:09:07;;;;;;;;;;;;;;;;;;5055929;28;19921;-92
2023/06/15 08:11:36;;;;;;;;;;;;;;;;;;5048440;28;19921;-91
2023/06/15 08:14:04;;;;;;;;;;;;;;;;;;5058045;28;19913;-93
2023/06/15 08:16:32;;;;;;;;;;;;;;;;;;5057035;28;19913;-92
2023/06/15 08:18:59;;;;;;;;;;;;;;;;;;5075040;28;19913;-92
2023/06/15 08:21:28;;;;;;;;;;;;;;;;;;5071613;28;19919;-92
2023/06/15 08:23:55;;;;;;;;;;;;;;;;;;5036686;28;19913;-92
2023/06/15 08:26:25;;;;;;;;;;;;;;;;;;5071162;28;19933;-92
2023/06/15 08:28:52;;;;;;;;;;;;;;;;;;5070234;28;19913;-93
2023/06/15 08:31:20;;;;;;;;;;;;;;;;;;5062872;28;19935;-92
2023/06/15 08:33:47;;;;;;;;;;;;;;;;;;5051080;28;19913;-93
2023/06/15 08:36:15;;;;;;;;;;;;;;;;;;5066952;28;19943;-94
2023/06/15 08:38:42;;;;;;;;;;;;;;;;;;5070883;28;19929;-92
2023/06/15 08:41:09;;;;;;;;;;;;;;;;;;5075136;28;19913;-93
2023/06/15 08:43:37;;;;;;;;;;;;;;;;;;5045321;28;20115;-93
2023/06/15 08:46:04;;;;;;;;;;;;;;;;;;5074399;28;19925;-92
2023/06/15 08:48:33;;;;;;;;;;;;;;;;;;5054005;28;19920;-93
2023/06/15 08:51:00;;;;;;;;;;;;;;;;;;5070294;28;19929;-93
2023/06/15 08:53:28;;;;;;;;;;;;;;;;;;5074282;28;20564;-92
2023/06/15 08:55:58;;;;;;;;;;;;;;;;;;5074867;28;19916;-92
2023/06/15 08:58:26;;;;;;;;;;;;;;;;;;5074517;28;19908;-93
2023/06/15 09:00:57;;;;;;;;;;;;;;;;;;5041277;28;19923;-92
2023/06/15 09:03:24;;;;;;;;;;;;;;;;;;5066440;28;19925;-93
2023/06/15 09:05:53;;;;;;;;;;;;;;;;;;5055107;28;19928;-93
2023/06/15 09:08:20;;;;;;;;;;;;;;;;;;5064903;28;19921;-93
2023/06/15 09:10:47;;;;;;;;;;;;;;;;;;5077084;28;19925;-93
2023/06/15 09:13:15;;;;;;;;;;;;;;;;;;5079625;28;19909;-92
2023/06/15 09:15:43;;;;;;;;;;;;;;;;;;5058653;28;19931;-93
2023/06/15 09:18:10;;;;;;;;;;;;;;;;;;5072938;28;19916;-92
2023/06/15 09:20:40;;;;;;;;;;;;;;;;;;5062002;28;19925;-92
2023/06/15 09:23:13;;;;;;;;;;;;;;;;;;5069917;28;19910;-93
2023/06/15 09:25:41;;;;;;;;;;;;;;;;;;5069452;28;19917;-94
2023/06/15 09:28:08;;;;;;;;;;;;;;;;;;5072770;28;19919;-92
2023/06/15 09:30:36;;;;;;;;;;;;;;;;;;5071132;28;19915;-93
2023/06/15 09:33:10;;;;;;;;;;;;;;;;;;5044235;23;19925;-80
2023/06/15 09:35:37;;;;;;;;;;;;;;;;;;5045193;28;19925;-81
2023/06/15 09:38:04;;;;;;;;;;;;;;;;;;5046520;28;19925;-82
2023/06/15 09:40:33;;;;;;;;;;;;;;;;;;5042206;28;19929;-81
2023/06/15 09:43:00;;;;;;;;;;;;;;;;;;5053547;28;19929;-81
2023/06/15 09:45:30;;;;;;;;;;;;;;;;;;5045074;28;19929;-81
2023/06/15 09:47:57;;;;;;;;;;;;;;;;;;5048971;28;20368;-81
2023/06/15 09:50:27;;;;;;;;;;;;;;;;;;5045560;28;19924;-81
2023/06/15 09:53:03;;;;;;;;;;;;;;;;;;5057113;28;19929;-81
2023/06/15 09:55:43;;;;;;;;;;;;;;;;;;5021668;28;19929;-80
2023/06/15 09:58:12;;;;;;;;;;;;;;;;;;5021405;28;19943;-81
2023/06/15 10:00:42;;;;;;;;;;;;;;;;;;5024782;28;19932;-81
2023/06/15 10:03:10;;;;;;;;;;;;;;;;;;5022751;28;19932;-81
2023/06/15 10:05:40;;;;;;;;;;;;;;;;;;5049735;28;19948;-80
2023/06/15 10:08:11;;;;;;;;;;;;;;;;;;5022554;28;19919;-80
2023/06/15 10:10:42;;;;;;;;;;;;;;;;;;5046625;28;19929;-81
2023/06/15 10:13:14;;;;;;;;;;;;;;;;;;5030872;28;19933;-81
2023/06/15 10:15:45;;;;;;;;;;;;;;;;;;5031805;28;19936;-81
2023/06/15 10:18:15;;;;;;;;;;;;;;;;;;5029776;28;19932;-81
2023/06/15 10:20:44;;;;;;;;;;;;;;;;;;5025233;28;19932;-81
2023/06/15 10:23:13;;;;;;;;;;;;;;;;;;5019664;28;19929;-81
2023/06/15 10:25:44;;;;;;;;;;;;;;;;;;5044407;28;19925;-81
2023/06/15 10:28:16;;;;;;;;;;;;;;;;;;5053906;28;19935;-81
2023/06/15 10:30:50;;;;;;;;;;;;;;;;;;5036989;28;20007;-80
2023/06/15 10:33:21;;;;;;;;;;;;;;;;;;5043691;28;20290;-80
2023/06/15 10:35:49;;;;;;;;;;;;;;;;;;5058939;28;19925;-80
2023/06/15 10:38:24;;;;;;;;;;;;;;;;;;5052265;28;19924;-80
2023/06/15 10:40:53;;;;;;;;;;;;;;;;;;5046849;28;19935;-80
2023/06/15 10:43:26;;;;;;;;;;;;;;;;;;5047760;28;19925;-80
2023/06/15 10:45:58;;;;;;;;;;;;;;;;;;5067089;28;19925;-80
2023/06/15 10:48:28;;;;;;;;;;;;;;;;;;5058505;28;19936;-80
2023/06/15 10:51:03;;;;;;;;;;;;;;;;;;5053371;28;19928;-80
2023/06/15 10:53:35;;;;;;;;;;;;;;;;;;5043595;28;20270;-81
2023/06/15 10:56:09;;;;;;;;;;;;;;;;;;5048123;28;19934;-81
2023/06/15 10:58:51;;;;;;;;;;;;;;;;;;5052744;28;19936;-81
2023/06/15 11:01:19;;;;;;;;;;;;;;;;;;5048396;28;19931;-81
2023/06/15 11:03:46;;;;;;;;;;;;;;;;;;5082634;28;19929;-81
2023/06/15 11:06:24;;;;;;;;;;;;;;;;;;5065450;28;19932;-81
2023/06/15 11:08:52;;;;;;;;;;;;;;;;;;5046850;28;20318;-81
2023/06/15 11:11:22;;;;;;;;;;;;;;;;;;5065962;28;19935;-81
2023/06/15 11:13:59;;;;;;;;;;;;;;;;;;5047080;28;19951;-81
2023/06/15 11:16:31;;;;;;;;;;;;;;;;;;5042288;28;20365;-81
2023/06/15 11:19:20;;;;;;;;;;;;;;;;;;5067297;28;19932;-81
2023/06/15 11:21:52;;;;;;;;;;;;;;;;;;5039284;28;19925;-81
2023/06/15 11:24:22;;;;;;;;;;;;;;;;;;5045710;28;20382;-81
2023/06/15 11:26:54;;;;;;;;;;;;;;;;;;5039664;28;19941;-81
2023/06/15 11:29:22;;;;;;;;;;;;;;;;;;5039325;28;19936;-81
2023/06/15 11:31:49;;;;;;;;;;;;;;;;;;5040998;28;19933;-80
2023/06/15 11:34:19;;;;;;;;;;;;;;;;;;5077446;28;19947;-80
2023/06/15 11:36:48;;;;;;;;;;;;;;;;;;5040052;28;19928;-80
2023/06/15 11:39:20;;;;;;;;;;;;;;;;;;5046740;28;19925;-80
2023/06/15 11:41:50;;;;;;;;;;;;;;;;;;5074848;28;19939;-80
2023/06/15 11:44:19;;;;;;;;;;;;;;;;;;5042385;28;19925;-79
2023/06/15 11:46:58;;;;;;;;;;;;;;;;;;5036972;28;20090;-80
2023/06/15 11:49:25;;;;;;;;;;;;;;;;;;5056344;28;19931;-79
2023/06/15 11:51:53;;;;;;;;;;;;;;;;;;5069787;28;20402;-79
2023/06/15 11:54:26;;;;;;;;;;;;;;;;;;5039518;28;19925;-80
2023/06/15 11:56:53;;;;;;;;;;;;;;;;;;5056020;28;19924;-79
2023/06/15 11:59:22;;;;;;;;;;;;;;;;;;5071934;28;19932;-79
2023/06/15 12:01:50;;;;;;;;;;;;;;;;;;5032052;28;19944;-79
2023/06/15 12:04:21;;;;;;;;;;;;;;;;;;5048929;28;19931;-80
2023/06/15 12:06:51;;;;;;;;;;;;;;;;;;5055962;28;19933;-80
2023/06/15 12:09:20;;;;;;;;;;;;;;;;;;5059360;28;20322;-80
2023/06/15 12:11:53;;;;;;;;;;;;;;;;;;5046259;28;19928;-80
2023/06/15 12:14:25;;;;;;;;;;;;;;;;;;5071252;28;19925;-80
2023/06/15 12:16:52;;;;;;;;;;;;;;;;;;5032806;28;19939;-80
2023/06/15 12:19:19;;;;;;;;;;;;;;;;;;5076176;28;19925;-80
2023/06/15 12:21:49;;;;;;;;;;;;;;;;;;5030896;28;19925;-80
2023/06/15 12:24:17;;;;;;;;;;;;;;;;;;5055914;28;19935;-80
2023/06/15 12:26:49;;;;;;;;;;;;;;;;;;5022491;28;19925;-80
2023/06/15 12:29:18;;;;;;;;;;;;;;;;;;5059498;28;19928;-80
2023/06/15 12:31:49;;;;;;;;;;;;;;;;;;5053349;28;19932;-80
2023/06/15 12:34:20;;;;;;;;;;;;;;;;;;5047183;28;19928;-80
2023/06/15 12:36:47;;;;;;;;;;;;;;;;;;5069659;28;19924;-81
2023/06/15 12:39:18;;;;;;;;;;;;;;;;;;5049150;28;19925;-81
2023/06/15 12:41:45;;;;;;;;;;;;;;;;;;5044666;28;19929;-81
2023/06/15 12:44:12;;;;;;;;;;;;;;;;;;5041778;28;19928;-80
2023/06/15 12:46:41;;;;;;;;;;;;;;;;;;5035728;28;20302;-81
2023/06/15 12:49:11;;;;;;;;;;;;;;;;;;5054135;28;19944;-81
2023/06/15 12:51:38;;;;;;;;;;;;;;;;;;5061231;28;20130;-81
2023/06/15 12:54:08;;;;;;;;;;;;;;;;;;5053849;28;19925;-81
2023/06/15 12:56:37;;;;;;;;;;;;;;;;;;5033735;28;19925;-81
2023/06/15 12:59:09;;;;;;;;;;;;;;;;;;5073714;28;19929;-80
2023/06/15 13:01:36;;;;;;;;;;;;;;;;;;5035272;28;19935;-80
2023/06/15 13:04:03;;;;;;;;;;;;;;;;;;5032395;28;19933;-80
2023/06/15 13:06:33;;;;;;;;;;;;;;;;;;5061639;28;19924;-80
2023/06/15 13:09:00;;;;;;;;;;;;;;;;;;5041898;28;19925;-80
2023/06/15 13:11:29;;;;;;;;;;;;;;;;;;5072268;28;19932;-80
2023/06/15 13:13:56;;;;;;;;;;;;;;;;;;5032367;28;19925;-81
2023/06/15 13:16:25;;;;;;;;;;;;;;;;;;5061366;28;19928;-80
2023/06/15 13:18:53;;;;;;;;;;;;;;;;;;5035991;28;19924;-80
2023/06/15 13:21:21;;;;;;;;;;;;;;;;;;5054439;28;19924;-80
2023/06/15 13:23:52;;;;;;;;;;;;;;;;;;5039460;28;19928;-80
2023/06/15 13:26:21;;;;;;;;;;;;;;;;;;5059486;28;19947;-80
2023/06/15 13:28:48;;;;;;;;;;;;;;;;;;5030288;28;19932;-80
2023/06/15 13:31:21;;;;;;;;;;;;;;;;;;5061541;28;19928;-80
2023/06/15 13:33:51;;;;;;;;;;;;;;;;;;5050606;28;19925;-80
2023/06/15 13:36:23;;;;;;;;;;;;;;;;;;5062188;28;19925;-80
2023/06/15 13:38:50;;;;;;;;;;;;;;;;;;5049238;28;20578;-80
2023/06/15 13:41:18;;;;;;;;;;;;;;;;;;5060363;28;19931;-80
2023/06/15 13:43:48;;;;;;;;;;;;;;;;;;5048075;28;19925;-80
2023/06/15 13:46:17;;;;;;;;;;;;;;;;;;5067297;28;19924;-82
2023/06/15 13:48:47;;;;;;;;;;;;;;;;;;5060180;28;19925;-81
2023/06/15 13:51:17;;;;;;;;;;;;;;;;;;5074433;28;19924;-80
2023/06/15 13:53:44;;;;;;;;;;;;;;;;;;5079061;28;19924;-81
2023/06/15 13:56:12;;;;;;;;;;;;;;;;;;5029930;28;19925;-80
2023/06/15 13:58:46;;;;;;;;;;;;;;;;;;5036487;28;19924;-80
2023/06/15 14:01:18;;;;;;;;;;;;;;;;;;5048416;28;19924;-80
2023/06/15 14:03:47;;;;;;;;;;;;;;;;;;5049951;28;19932;-80
2023/06/15 14:06:15;;;;;;;;;;;;;;;;;;5031172;28;19925;-80
2023/06/15 14:08:42;;;;;;;;;;;;;;;;;;5031008;28;19928;-79
2023/06/15 14:11:09;;;;;;;;;;;;;;;;;;5042125;28;20716;-79
2023/06/15 14:13:36;;;;;;;;;;;;;;;;;;5048800;28;19951;-80
2023/06/15 14:16:06;;;;;;;;;;;;;;;;;;5080711;28;19924;-80
2023/06/15 14:18:36;;;;;;;;;;;;;;;;;;5045997;28;19928;-80
2023/06/15 14:21:05;;;;;;;;;;;;;;;;;;5063440;28;19925;-80
2023/06/15 14:23:32;;;;;;;;;;;;;;;;;;5071885;28;19925;-79
2023/06/15 14:26:04;;;;;;;;;;;;;;;;;;5040947;28;20619;-80
2023/06/15 14:28:32;;;;;;;;;;;;;;;;;;5042343;28;19933;-80
2023/06/15 14:31:02;;;;;;;;;;;;;;;;;;5063849;28;19928;-80
2023/06/15 14:33:30;;;;;;;;;;;;;;;;;;5066559;28;19948;-80
2023/06/15 14:35:59;;;;;;;;;;;;;;;;;;5047201;28;19939;-80
2023/06/15 14:38:26;;;;;;;;;;;;;;;;;;5039379;28;19928;-80
2023/06/15 14:40:56;;;;;;;;;;;;;;;;;;5082035;28;19928;-80
2023/06/15 14:43:25;;;;;;;;;;;;;;;;;;5045645;28;19936;-80
2023/06/15 14:45:55;;;;;;;;;;;;;;;;;;5060971;28;20294;-80
2023/06/15 14:48:24;;;;;;;;;;;;;;;;;;5061753;28;19932;-80
2023/06/15 14:50:52;;;;;;;;;;;;;;;;;;5044888;28;19936;-80
2023/06/15 14:53:19;;;;;;;;;;;;;;;;;;5056568;28;20394;-80
2023/06/15 14:55:52;;;;;;;;;;;;;;;;;;5080273;28;19936;-80
2023/06/15 14:58:19;;;;;;;;;;;;;;;;;;5042825;28;19924;-81
2023/06/15 15:00:48;;;;;;;;;;;;;;;;;;5051260;28;19926;-79
2023/06/15 15:03:15;;;;;;;;;;;;;;;;;;5049671;28;19931;-80
2023/06/15 15:05:45;;;;;;;;;;;;;;;;;;5084075;28;20286;-80
2023/06/15 15:08:13;;;;;;;;;;;;;;;;;;5038660;28;19928;-79
2023/06/15 15:10:43;;;;;;;;;;;;;;;;;;5049219;28;19924;-79
2023/06/15 15:13:15;;;;;;;;;;;;;;;;;;5043992;28;19925;-79
2023/06/15 15:15:42;;;;;;;;;;;;;;;;;;5061691;28;19931;-80
2023/06/15 15:18:12;;;;;;;;;;;;;;;;;;5055817;28;19928;-80
2023/06/15 15:20:41;;;;;;;;;;;;;;;;;;5059701;28;19932;-81
2023/06/15 15:23:08;;;;;;;;;;;;;;;;;;5051969;28;19932;-80
2023/06/15 15:25:36;;;;;;;;;;;;;;;;;;5043873;28;19932;-81
2023/06/15 15:28:08;;;;;;;;;;;;;;;;;;5065387;28;19924;-79
2023/06/15 15:30:35;;;;;;;;;;;;;;;;;;5061612;28;19925;-80
2023/06/15 15:33:02;;;;;;;;;;;;;;;;;;5057741;28;19934;-80
2023/06/15 15:35:31;;;;;;;;;;;;;;;;;;5068344;28;19939;-80
2023/06/15 15:37:58;;;;;;;;;;;;;;;;;;5061278;28;19908;-81
2023/06/15 15:40:28;;;;;;;;;;;;;;;;;;5061952;28;19931;-82
2023/06/15 15:42:59;;;;;;;;;;;;;;;;;;5050665;28;19932;-82
2023/06/15 15:45:26;;;;;;;;;;;;;;;;;;5068775;28;19924;-82
2023/06/15 15:47:56;;;;;;;;;;;;;;;;;;5052277;28;19935;-82
2023/06/15 15:50:25;;;;;;;;;;;;;;;;;;5078740;28;19924;-81
2023/06/15 15:52:55;;;;;;;;;;;;;;;;;;5042697;28;19933;-81
2023/06/15 15:55:25;;;;;;;;;;;;;;;;;;5051015;28;19931;-81
2023/06/15 15:57:52;;;;;;;;;;;;;;;;;;5035539;28;19925;-80
2023/06/15 16:00:25;;;;;;;;;;;;;;;;;;5037169;28;19933;-80
2023/06/15 16:02:52;;;;;;;;;;;;;;;;;;5032179;28;19936;-80
2023/06/15 16:05:21;;;;;;;;;;;;;;;;;;5041294;28;19935;-80
2023/06/15 16:07:48;;;;;;;;;;;;;;;;;;5058629;28;19929;-81
2023/06/15 16:10:18;;;;;;;;;;;;;;;;;;5073921;28;19925;-81
2023/06/15 16:12:45;;;;;;;;;;;;;;;;;;5027569;28;19933;-81
2023/06/15 16:15:12;;;;;;;;;;;;;;;;;;5047307;28;19931;-82
2023/06/15 16:17:41;;;;;;;;;;;;;;;;;;5068123;28;19924;-82
2023/06/15 16:20:08;;;;;;;;;;;;;;;;;;5038806;28;19924;-82
2023/06/15 16:22:35;;;;;;;;;;;;;;;;;;5052863;28;19935;-81
2023/06/15 16:25:02;;;;;;;;;;;;;;;;;;5032376;28;19931;-81
2023/06/15 16:27:29;;;;;;;;;;;;;;;;;;5062980;28;19925;-79
2023/06/15 16:29:56;;;;;;;;;;;;;;;;;;5049260;28;19935;-81
2023/06/15 16:32:28;;;;;;;;;;;;;;;;;;5078678;28;19925;-82
2023/06/15 16:34:56;;;;;;;;;;;;;;;;;;5044016;28;19928;-82
2023/06/15 16:43:08;;;;;;;;;;;;;;;;;;5221086;23;19934;-91
2023/06/15 16:45:35;;;;;;;;;;;;;;;;;;5094042;28;19912;-91
2023/06/15 16:48:02;;;;;;;;;;;;;;;;;;5074136;28;19913;-91
2023/06/15 16:50:31;;;;;;;;;;;;;;;;;;5094908;28;19925;-91
2023/06/15 16:52:58;;;;;;;;;;;;;;;;;;5094465;28;19921;-92
2023/06/15 16:55:28;;;;;;;;;;;;;;;;;;5073942;28;19912;-90
2023/06/15 16:57:56;;;;;;;;;;;;;;;;;;5074519;28;19909;-91
2023/06/15 17:00:28;;;;;;;;;;;;;;;;;;5060541;28;19912;-90
2023/06/15 17:03:01;;;;;;;;;;;;;;;;;;5091234;28;19921;-91